Time;durP1;ratioP1;P1;durP2;ratioP2;P2;SDS_P1;SDS_P2;PMS_P1;PMS_P2;Temp;Humidity;BMP_temperature;BMP_pressure;BME280_temperature;BME280_humidity;BME280_pressure;Samples;Min_cycle;Max_cycle;Signal;HPM_P1;HPM_P2
2023/12/26 00:00:29;;;;;;;0.93;0.93;;;;;;;;;;5070052;28;20445;-70
2023/12/26 00:02:55;;;;;;;3.57;3.20;;;;;;;;;;5069472;28;20437;-70
2023/12/26 00:05:21;;;;;;;1.83;1.17;;;;;;;;;;5069115;28;20464;-70
2023/12/26 00:07:47;;;;;;;4.97;2.60;;;;;;;;;;5068585;28;21117;-70
2023/12/26 00:10:15;;;;;;;1.13;0.90;;;;;;;;;;5068880;28;20456;-70
2023/12/26 00:12:42;;;;;;;1.60;1.03;;;;;;;;;;5070032;28;20426;-71
2023/12/26 00:15:08;;;;;;;5.07;1.70;;;;;;;;;;5070597;28;20932;-71
2023/12/26 00:17:34;;;;;;;1.00;1.00;;;;;;;;;;5085162;28;20454;-70
2023/12/26 00:20:00;;;;;;;1.17;0.97;;;;;;;;;;5069737;28;20433;-70
2023/12/26 00:22:26;;;;;;;2.20;1.00;;;;;;;;;;5085384;28;21010;-70
2023/12/26 00:24:52;;;;;;;1.20;1.20;;;;;;;;;;5068100;28;20560;-70
2023/12/26 00:27:18;;;;;;;3.80;1.60;;;;;;;;;;5069582;28;21297;-69
2023/12/26 00:29:44;;;;;;;2.00;1.23;;;;;;;;;;5069874;28;20425;-70
2023/12/26 00:32:10;;;;;;;2.17;1.73;;;;;;;;;;5070432;28;20430;-71
2023/12/26 00:34:36;;;;;;;1.77;1.20;;;;;;;;;;5068714;28;20524;-71
2023/12/26 00:37:02;;;;;;;2.53;1.23;;;;;;;;;;5069177;28;21020;-70
2023/12/26 00:39:28;;;;;;;1.23;0.73;;;;;;;;;;5069560;28;20417;-70
2023/12/26 00:41:54;;;;;;;2.60;1.10;;;;;;;;;;5084763;28;20460;-71
2023/12/26 00:44:20;;;;;;;4.17;2.00;;;;;;;;;;5067040;28;20444;-71
2023/12/26 00:46:46;;;;;;;11.40;2.50;;;;;;;;;;5068326;28;20437;-70
2023/12/26 00:49:13;;;;;;;2.47;2.37;;;;;;;;;;5068333;28;20433;-70
2023/12/26 00:51:39;;;;;;;2.00;1.90;;;;;;;;;;5069590;28;20465;-70
2023/12/26 00:54:05;;;;;;;2.27;1.17;;;;;;;;;;5068556;28;20473;-70
2023/12/26 00:56:31;;;;;;;1.30;1.30;;;;;;;;;;5068295;28;20730;-70
2023/12/26 00:58:57;;;;;;;1.60;1.37;;;;;;;;;;5069074;28;20488;-70
2023/12/26 01:01:23;;;;;;;4.50;1.20;;;;;;;;;;5067538;28;20432;-71
2023/12/26 01:03:49;;;;;;;5.60;1.60;;;;;;;;;;5066128;28;20441;-71
2023/12/26 01:06:15;;;;;;;3.67;1.53;;;;;;;;;;5067824;28;20453;-70
2023/12/26 01:08:41;;;;;;;2.70;1.17;;;;;;;;;;5068877;28;20425;-70
2023/12/26 01:11:07;;;;;;;2.30;1.10;;;;;;;;;;5067566;28;20465;-70
2023/12/26 01:13:34;;;;;;;2.70;1.33;;;;;;;;;;5068598;28;20441;-70
2023/12/26 01:16:03;;;;;;;1.30;1.20;;;;;;;;;;5068707;28;20489;-69
2023/12/26 01:18:30;;;;;;;2.67;1.10;;;;;;;;;;5066705;28;20448;-70
2023/12/26 01:20:56;;;;;;;2.10;1.10;;;;;;;;;;5068580;28;20457;-70
2023/12/26 01:23:22;;;;;;;2.73;1.20;;;;;;;;;;5068717;28;20921;-70
2023/12/26 01:25:48;;;;;;;3.17;1.50;;;;;;;;;;5069195;28;20426;-70
2023/12/26 01:28:15;;;;;;;1.20;1.20;;;;;;;;;;5067931;28;20795;-69
2023/12/26 01:30:41;;;;;;;2.60;1.30;;;;;;;;;;5067854;28;20429;-71
2023/12/26 01:33:07;;;;;;;2.50;0.97;;;;;;;;;;5068125;28;21106;-71
2023/12/26 01:35:33;;;;;;;0.70;0.70;;;;;;;;;;5068450;28;21048;-70
2023/12/26 01:37:59;;;;;;;6.90;1.00;;;;;;;;;;5067772;28;20464;-70
2023/12/26 01:40:25;;;;;;;1.23;1.10;;;;;;;;;;5080276;28;20543;-70
2023/12/26 01:42:51;;;;;;;5.70;1.07;;;;;;;;;;5067741;28;20421;-70
2023/12/26 01:45:17;;;;;;;0.83;0.80;;;;;;;;;;5067563;28;20448;-70
2023/12/26 01:47:44;;;;;;;0.73;0.73;;;;;;;;;;5068272;28;20442;-70
2023/12/26 01:50:10;;;;;;;2.93;1.20;;;;;;;;;;5068607;28;20502;-71
2023/12/26 01:52:38;;;;;;;1.23;1.13;;;;;;;;;;5069119;28;20440;-70
2023/12/26 01:55:05;;;;;;;2.67;0.80;;;;;;;;;;5083282;28;20968;-71
2023/12/26 01:57:32;;;;;;;6.00;1.50;;;;;;;;;;5067683;28;20449;-70
2023/12/26 01:59:58;;;;;;;1.70;1.47;;;;;;;;;;5068268;28;20473;-70
2023/12/26 02:02:24;;;;;;;5.27;1.60;;;;;;;;;;5068585;28;20440;-70
2023/12/26 02:04:50;;;;;;;1.57;1.20;;;;;;;;;;5068908;28;21004;-70
2023/12/26 02:07:16;;;;;;;3.17;1.57;;;;;;;;;;5083221;28;20482;-69
2023/12/26 02:09:42;;;;;;;2.07;1.20;;;;;;;;;;5065941;28;20528;-69
2023/12/26 02:12:08;;;;;;;1.80;1.00;;;;;;;;;;5084481;28;20434;-70
2023/12/26 02:14:35;;;;;;;0.87;0.87;;;;;;;;;;5067023;28;20449;-71
2023/12/26 02:17:03;;;;;;;3.73;2.37;;;;;;;;;;5068637;28;20445;-70
2023/12/26 02:19:29;;;;;;;1.63;1.07;;;;;;;;;;5068008;28;20444;-70
2023/12/26 02:21:55;;;;;;;2.43;1.00;;;;;;;;;;5071511;28;20437;-70
2023/12/26 02:24:20;;;;;;;2.43;1.10;;;;;;;;;;5071177;28;20461;-71
2023/12/26 02:26:48;;;;;;;2.00;0.83;;;;;;;;;;5072174;28;20455;-71
2023/12/26 02:29:14;;;;;;;1.77;1.53;;;;;;;;;;5070118;28;20480;-70
2023/12/26 02:31:41;;;;;;;4.43;1.27;;;;;;;;;;5072357;28;20433;-71
2023/12/26 02:34:07;;;;;;;2.77;1.30;;;;;;;;;;5071785;28;20448;-70
2023/12/26 02:36:35;;;;;;;1.53;1.00;;;;;;;;;;5072241;28;20504;-70
2023/12/26 02:39:01;;;;;;;1.47;0.97;;;;;;;;;;5070547;28;20437;-71
2023/12/26 02:41:27;;;;;;;0.83;0.83;;;;;;;;;;5072733;28;20441;-69
2023/12/26 02:43:53;;;;;;;3.90;1.07;;;;;;;;;;5071369;28;20562;-69
2023/12/26 02:46:19;;;;;;;2.00;1.17;;;;;;;;;;5071873;28;20483;-69
2023/12/26 02:48:45;;;;;;;2.27;1.10;;;;;;;;;;5072087;28;20441;-69
2023/12/26 02:51:11;;;;;;;4.27;0.93;;;;;;;;;;5071326;28;20480;-69
2023/12/26 02:53:37;;;;;;;2.43;1.10;;;;;;;;;;5070944;28;20531;-70
2023/12/26 02:56:03;;;;;;;1.63;0.90;;;;;;;;;;5072040;28;20979;-70
2023/12/26 02:58:29;;;;;;;0.83;0.63;;;;;;;;;;5070615;28;20433;-69
2023/12/26 03:00:55;;;;;;;2.30;0.80;;;;;;;;;;5071076;28;20479;-70
2023/12/26 03:03:21;;;;;;;6.57;1.03;;;;;;;;;;5070750;28;21205;-71
2023/12/26 03:05:47;;;;;;;2.53;0.90;;;;;;;;;;5070000;28;20540;-71
2023/12/26 03:08:13;;;;;;;2.07;1.13;;;;;;;;;;5071086;28;20429;-70
2023/12/26 03:10:39;;;;;;;1.93;0.97;;;;;;;;;;5069617;28;20448;-70
2023/12/26 03:13:05;;;;;;;4.93;0.80;;;;;;;;;;5070437;28;20442;-71
2023/12/26 03:15:31;;;;;;;0.93;0.93;;;;;;;;;;5070436;28;20516;-70
2023/12/26 03:17:57;;;;;;;0.77;0.77;;;;;;;;;;5071130;28;20429;-71
2023/12/26 03:20:23;;;;;;;1.33;0.80;;;;;;;;;;5071324;28;20445;-70
2023/12/26 03:22:49;;;;;;;4.10;0.70;;;;;;;;;;5071454;28;20422;-69
2023/12/26 03:25:15;;;;;;;3.13;1.07;;;;;;;;;;5068710;28;20443;-69
2023/12/26 03:27:41;;;;;;;1.80;1.70;;;;;;;;;;5070490;28;20436;-70
2023/12/26 03:30:07;;;;;;;1.20;0.77;;;;;;;;;;5070930;28;20803;-71
2023/12/26 03:32:33;;;;;;;1.67;1.20;;;;;;;;;;5071237;28;20540;-71
2023/12/26 03:34:59;;;;;;;1.00;1.00;;;;;;;;;;5069955;28;20581;-70
2023/12/26 03:37:25;;;;;;;2.37;0.93;;;;;;;;;;5070278;28;20977;-70
2023/12/26 03:39:51;;;;;;;1.47;0.80;;;;;;;;;;5069764;28;20776;-69
2023/12/26 03:42:17;;;;;;;1.27;0.80;;;;;;;;;;5070675;28;20452;-70
2023/12/26 03:44:46;;;;;;;1.80;0.87;;;;;;;;;;5070686;28;20857;-69
2023/12/26 03:47:12;;;;;;;4.30;1.37;;;;;;;;;;5086727;28;20441;-69
2023/12/26 03:49:38;;;;;;;8.27;1.53;;;;;;;;;;5070415;28;20457;-69
2023/12/26 03:52:04;;;;;;;1.27;1.17;;;;;;;;;;5070283;28;20440;-70
2023/12/26 03:54:30;;;;;;;8.23;1.43;;;;;;;;;;5069841;28;20425;-70
2023/12/26 03:56:56;;;;;;;2.00;1.27;;;;;;;;;;5070732;28;20556;-70
2023/12/26 03:59:22;;;;;;;5.47;0.87;;;;;;;;;;5070181;28;20425;-70
2023/12/26 04:01:48;;;;;;;1.03;1.03;;;;;;;;;;5069971;28;20459;-71
2023/12/26 04:04:14;;;;;;;6.13;2.40;;;;;;;;;;5070637;28;20473;-71
2023/12/26 04:06:40;;;;;;;3.17;1.20;;;;;;;;;;5070509;28;20425;-70
2023/12/26 04:09:06;;;;;;;2.67;1.20;;;;;;;;;;5068271;28;20966;-71
2023/12/26 04:11:33;;;;;;;3.83;1.23;;;;;;;;;;5070420;28;20440;-70
2023/12/26 04:13:59;;;;;;;0.97;0.97;;;;;;;;;;5070024;28;20536;-70
2023/12/26 04:16:24;;;;;;;5.87;1.23;;;;;;;;;;5070446;28;21090;-70
2023/12/26 04:18:51;;;;;;;4.97;1.00;;;;;;;;;;5067894;28;20445;-70
2023/12/26 04:21:16;;;;;;;4.63;1.70;;;;;;;;;;5068995;28;20923;-71
2023/12/26 04:23:42;;;;;;;2.53;0.80;;;;;;;;;;5081868;28;20444;-70
2023/12/26 04:26:08;;;;;;;8.07;1.30;;;;;;;;;;5086145;28;21006;-70
2023/12/26 04:28:34;;;;;;;0.97;0.97;;;;;;;;;;5069287;28;20815;-70
2023/12/26 04:31:03;;;;;;;5.50;1.20;;;;;;;;;;5069425;28;20534;-70
2023/12/26 04:33:29;;;;;;;5.20;1.00;;;;;;;;;;5069110;28;20425;-69
2023/12/26 04:35:55;;;;;;;0.77;0.77;;;;;;;;;;5069434;28;20476;-69
2023/12/26 04:38:21;;;;;;;1.43;1.33;;;;;;;;;;5068736;28;20929;-69
2023/12/26 04:40:46;;;;;;;3.27;0.87;;;;;;;;;;5069315;28;20527;-69
2023/12/26 04:43:15;;;;;;;1.50;1.10;;;;;;;;;;5067957;28;20490;-70
2023/12/26 04:45:41;;;;;;;2.13;0.80;;;;;;;;;;5068703;28;20944;-71
2023/12/26 04:48:07;;;;;;;3.43;1.30;;;;;;;;;;5069069;28;20448;-70
2023/12/26 04:50:33;;;;;;;3.33;1.30;;;;;;;;;;5069118;28;20481;-70
2023/12/26 04:52:59;;;;;;;2.57;0.90;;;;;;;;;;5068931;28;20703;-70
2023/12/26 04:55:26;;;;;;;1.00;1.00;;;;;;;;;;5068720;28;20839;-69
2023/12/26 04:57:52;;;;;;;2.10;0.90;;;;;;;;;;5068846;28;20441;-70
2023/12/26 05:00:18;;;;;;;2.10;1.23;;;;;;;;;;5069280;28;20452;-70
2023/12/26 05:02:43;;;;;;;1.00;1.00;;;;;;;;;;5068552;28;20472;-70
2023/12/26 05:05:09;;;;;;;1.27;1.17;;;;;;;;;;5069130;28;20476;-70
2023/12/26 05:07:35;;;;;;;3.43;0.93;;;;;;;;;;5068565;28;21031;-70
2023/12/26 05:10:02;;;;;;;0.83;0.83;;;;;;;;;;5068975;28;20508;-70
2023/12/26 05:12:28;;;;;;;2.10;0.97;;;;;;;;;;5067553;28;20532;-70
2023/12/26 05:14:54;;;;;;;8.03;1.80;;;;;;;;;;5067279;28;20452;-70
2023/12/26 05:17:20;;;;;;;1.77;0.90;;;;;;;;;;5068802;28;20453;-69
2023/12/26 05:19:46;;;;;;;5.20;1.73;;;;;;;;;;5068501;28;20491;-70
2023/12/26 05:22:12;;;;;;;2.70;1.07;;;;;;;;;;5069005;28;20437;-70
2023/12/26 05:24:39;;;;;;;2.27;0.80;;;;;;;;;;5068903;28;20433;-70
2023/12/26 05:27:05;;;;;;;6.83;1.60;;;;;;;;;;5067802;28;20444;-69
2023/12/26 05:29:31;;;;;;;1.90;1.20;;;;;;;;;;5067675;28;20517;-69
2023/12/26 05:31:57;;;;;;;3.53;1.30;;;;;;;;;;5068377;28;20528;-70
2023/12/26 05:34:23;;;;;;;2.47;1.03;;;;;;;;;;5068811;28;20805;-70
2023/12/26 05:36:49;;;;;;;1.23;0.80;;;;;;;;;;5068397;28;20477;-70
2023/12/26 05:39:15;;;;;;;4.53;1.17;;;;;;;;;;5067084;28;20425;-70
2023/12/26 05:41:42;;;;;;;3.50;0.80;;;;;;;;;;5067360;28;20449;-71
2023/12/26 05:44:08;;;;;;;8.43;1.20;;;;;;;;;;5068360;28;20429;-70
2023/12/26 05:46:34;;;;;;;5.20;1.37;;;;;;;;;;5068374;28;20456;-70
2023/12/26 05:49:00;;;;;;;4.00;0.90;;;;;;;;;;5068445;28;20418;-70
2023/12/26 05:51:26;;;;;;;0.70;0.70;;;;;;;;;;5068887;28;20603;-71
2023/12/26 05:53:52;;;;;;;2.83;0.93;;;;;;;;;;5068309;28;20457;-70
2023/12/26 05:56:19;;;;;;;1.40;1.30;;;;;;;;;;5067560;28;20585;-71
2023/12/26 05:58:45;;;;;;;5.53;1.37;;;;;;;;;;5066780;28;20601;-69
2023/12/26 06:01:11;;;;;;;2.63;1.07;;;;;;;;;;5067294;28;20541;-71
2023/12/26 06:03:38;;;;;;;8.13;1.00;;;;;;;;;;5068635;28;20425;-69
2023/12/26 06:06:05;;;;;;;10.33;0.90;;;;;;;;;;5068900;28;20551;-70
2023/12/26 06:08:31;;;;;;;2.13;1.30;;;;;;;;;;5067762;28;20956;-69
2023/12/26 06:10:57;;;;;;;4.47;2.87;;;;;;;;;;5067863;28;20441;-70
2023/12/26 06:13:23;;;;;;;2.03;1.13;;;;;;;;;;5067841;28;20433;-70
2023/12/26 06:15:49;;;;;;;1.53;0.90;;;;;;;;;;5065309;28;20574;-69
2023/12/26 06:18:15;;;;;;;7.53;1.27;;;;;;;;;;5064328;28;20448;-69
2023/12/26 06:20:41;;;;;;;3.83;1.10;;;;;;;;;;5067698;28;20433;-69
2023/12/26 06:23:07;;;;;;;6.30;1.07;;;;;;;;;;5067766;28;20449;-70
2023/12/26 06:25:33;;;;;;;2.03;1.20;;;;;;;;;;5066610;28;21054;-70
2023/12/26 06:27:59;;;;;;;1.83;1.27;;;;;;;;;;5066800;28;20444;-70
2023/12/26 06:30:24;;;;;;;4.77;1.13;;;;;;;;;;5066174;28;21142;-69
2023/12/26 06:32:51;;;;;;;6.50;1.27;;;;;;;;;;5067861;28;20444;-69
2023/12/26 06:35:17;;;;;;;1.03;1.00;;;;;;;;;;5065873;28;20471;-70
2023/12/26 06:37:43;;;;;;;2.73;1.27;;;;;;;;;;5068366;28;20417;-70
2023/12/26 06:40:09;;;;;;;2.00;1.17;;;;;;;;;;5067922;28;20932;-70
2023/12/26 06:42:35;;;;;;;2.63;1.00;;;;;;;;;;5068362;28;20425;-70
2023/12/26 06:45:01;;;;;;;2.60;1.27;;;;;;;;;;5067977;28;20445;-70
2023/12/26 06:47:27;;;;;;;4.00;1.03;;;;;;;;;;5067769;28;20472;-70
2023/12/26 06:49:53;;;;;;;2.83;1.27;;;;;;;;;;5066285;28;20481;-72
2023/12/26 06:52:19;;;;;;;4.80;0.97;;;;;;;;;;5068153;28;20429;-67
2023/12/26 06:54:45;;;;;;;0.80;0.80;;;;;;;;;;5063997;28;21111;-71
2023/12/26 06:57:15;;;;;;;2.87;1.10;;;;;;;;;;5065900;28;20556;-71
2023/12/26 06:59:48;;;;;;;7.10;0.90;;;;;;;;;;5068188;28;20425;-70
2023/12/26 07:02:15;;;;;;;1.80;1.00;;;;;;;;;;5067160;28;20491;-70
2023/12/26 07:04:44;;;;;;;4.17;0.90;;;;;;;;;;5067983;28;20439;-69
2023/12/26 07:07:10;;;;;;;7.73;0.80;;;;;;;;;;5070175;28;20448;-70
2023/12/26 07:09:36;;;;;;;1.23;1.20;;;;;;;;;;5069997;28;20449;-69
2023/12/26 07:12:02;;;;;;;1.47;1.37;;;;;;;;;;5071450;28;20433;-69
2023/12/26 07:14:31;;;;;;;1.60;1.20;;;;;;;;;;5071156;28;20475;-70
2023/12/26 07:16:58;;;;;;;1.63;0.80;;;;;;;;;;5070530;28;21064;-69
2023/12/26 07:19:24;;;;;;;3.00;0.87;;;;;;;;;;5086552;28;20422;-70
2023/12/26 07:21:50;;;;;;;5.27;0.90;;;;;;;;;;5071674;28;20514;-69
2023/12/26 07:24:16;;;;;;;5.23;1.23;;;;;;;;;;5069538;28;20592;-70
2023/12/26 07:26:42;;;;;;;2.73;0.80;;;;;;;;;;5070987;28;21009;-70
2023/12/26 07:29:08;;;;;;;1.60;1.30;;;;;;;;;;5070142;28;20406;-69
2023/12/26 07:31:34;;;;;;;2.30;0.80;;;;;;;;;;5071272;28;20437;-70
2023/12/26 07:34:02;;;;;;;7.80;1.50;;;;;;;;;;5086962;28;20418;-71
2023/12/26 07:36:28;;;;;;;1.27;1.17;;;;;;;;;;5070393;28;20834;-69
2023/12/26 07:38:54;;;;;;;1.13;1.00;;;;;;;;;;5068675;28;20429;-70
2023/12/26 07:41:20;;;;;;;2.10;1.10;;;;;;;;;;5070955;28;20517;-70
2023/12/26 07:43:47;;;;;;;1.70;1.20;;;;;;;;;;5071673;28;20787;-69
2023/12/26 07:46:14;;;;;;;3.00;0.80;;;;;;;;;;5071592;28;20467;-69
2023/12/26 07:48:39;;;;;;;1.00;1.00;;;;;;;;;;5066347;28;20912;-69
2023/12/26 07:51:05;;;;;;;1.00;1.00;;;;;;;;;;5070378;28;20468;-69
2023/12/26 07:53:32;;;;;;;4.77;1.37;;;;;;;;;;5068859;28;20917;-69
2023/12/26 07:56:00;;;;;;;3.47;1.90;;;;;;;;;;5067772;28;20485;-70
2023/12/26 07:58:26;;;;;;;1.53;0.80;;;;;;;;;;5069813;28;20425;-71
2023/12/26 08:00:52;;;;;;;3.20;1.23;;;;;;;;;;5069543;28;20432;-71
2023/12/26 08:03:18;;;;;;;5.03;1.33;;;;;;;;;;5070662;28;21701;-70
2023/12/26 08:05:44;;;;;;;1.50;1.10;;;;;;;;;;5069198;28;20510;-70
2023/12/26 08:08:10;;;;;;;3.47;1.10;;;;;;;;;;5068465;28;20441;-70
2023/12/26 08:10:36;;;;;;;2.40;1.03;;;;;;;;;;5067796;28;20499;-70
2023/12/26 08:13:02;;;;;;;14.97;2.07;;;;;;;;;;5083650;28;20445;-69
2023/12/26 08:15:29;;;;;;;5.70;1.17;;;;;;;;;;5082133;28;20469;-70
2023/12/26 08:17:56;;;;;;;5.03;1.23;;;;;;;;;;5067982;28;20484;-70
2023/12/26 08:20:22;;;;;;;4.33;3.30;;;;;;;;;;5069052;28;20451;-71
2023/12/26 08:22:48;;;;;;;1.63;1.60;;;;;;;;;;5069711;28;20446;-69
2023/12/26 08:25:14;;;;;;;1.77;1.67;;;;;;;;;;5070247;28;20405;-70
2023/12/26 08:27:40;;;;;;;2.27;2.17;;;;;;;;;;5069043;28;20530;-70
2023/12/26 08:30:07;;;;;;;1.23;1.23;;;;;;;;;;5069611;28;20430;-71
2023/12/26 08:32:33;;;;;;;1.67;1.43;;;;;;;;;;5069805;28;20445;-69
2023/12/26 08:35:00;;;;;;;4.83;1.70;;;;;;;;;;5069232;28;20475;-70
2023/12/26 08:37:27;;;;;;;5.40;3.60;;;;;;;;;;5068891;28;20469;-69
2023/12/26 08:39:53;;;;;;;10.53;5.37;;;;;;;;;;5085436;28;20777;-69
2023/12/26 08:42:19;;;;;;;2.03;1.37;;;;;;;;;;5070370;28;20442;-69
2023/12/26 08:44:45;;;;;;;9.67;1.60;;;;;;;;;;5068392;28;20452;-69
2023/12/26 08:47:11;;;;;;;4.13;2.20;;;;;;;;;;5085005;28;20794;-69
2023/12/26 08:49:37;;;;;;;1.20;1.20;;;;;;;;;;5069326;28;20577;-72
2023/12/26 08:52:03;;;;;;;4.37;1.33;;;;;;;;;;5069267;28;20963;-74
2023/12/26 08:54:29;;;;;;;4.73;1.87;;;;;;;;;;5068667;28;20516;-72
2023/12/26 08:56:55;;;;;;;3.20;1.53;;;;;;;;;;5067937;28;20952;-72
2023/12/26 08:59:21;;;;;;;5.27;1.70;;;;;;;;;;5068148;28;20428;-73
2023/12/26 09:01:47;;;;;;;1.83;1.27;;;;;;;;;;5085248;28;20440;-73
2023/12/26 09:04:13;;;;;;;2.87;1.27;;;;;;;;;;5069035;28;20441;-73
2023/12/26 09:06:39;;;;;;;1.70;1.70;;;;;;;;;;5067273;28;20441;-72
2023/12/26 09:09:05;;;;;;;3.47;1.40;;;;;;;;;;5065168;28;20441;-72
2023/12/26 09:11:32;;;;;;;2.40;1.33;;;;;;;;;;5068958;28;20484;-73
2023/12/26 09:13:58;;;;;;;1.67;1.07;;;;;;;;;;5067493;28;20441;-73
2023/12/26 09:16:24;;;;;;;2.93;1.83;;;;;;;;;;5066319;28;20918;-72
2023/12/26 09:18:49;;;;;;;6.67;4.67;;;;;;;;;;5066220;28;20445;-72
2023/12/26 09:21:16;;;;;;;5.93;3.90;;;;;;;;;;5067455;28;20513;-73
2023/12/26 09:23:42;;;;;;;2.60;1.20;;;;;;;;;;5067991;28;20801;-72
2023/12/26 09:26:08;;;;;;;8.40;1.23;;;;;;;;;;5066850;28;20445;-72
2023/12/26 09:28:34;;;;;;;4.53;1.20;;;;;;;;;;5083110;28;20936;-72
2023/12/26 09:31:00;;;;;;;9.63;1.30;;;;;;;;;;5068472;28;20582;-72
2023/12/26 09:33:26;;;;;;;3.33;1.50;;;;;;;;;;5085173;28;20925;-72
2023/12/26 09:35:52;;;;;;;1.70;1.00;;;;;;;;;;5083164;28;20570;-73
2023/12/26 09:38:18;;;;;;;3.53;1.40;;;;;;;;;;5068256;28;20487;-72
2023/12/26 09:40:44;;;;;;;7.67;3.10;;;;;;;;;;5084122;28;20445;-72
2023/12/26 09:43:10;;;;;;;2.97;2.30;;;;;;;;;;5083511;28;20431;-73
2023/12/26 09:45:36;;;;;;;6.43;1.97;;;;;;;;;;5067865;28;20421;-71
2023/12/26 09:48:02;;;;;;;3.03;2.43;;;;;;;;;;5067623;28;20436;-72
2023/12/26 09:50:28;;;;;;;4.63;2.17;;;;;;;;;;5067080;28;20469;-72
2023/12/26 09:52:59;;;;;;;3.90;0.90;;;;;;;;;;5066696;28;20459;-72
2023/12/26 09:55:28;;;;;;;1.93;1.30;;;;;;;;;;5085198;28;20465;-72
2023/12/26 09:57:57;;;;;;;2.10;1.00;;;;;;;;;;5066962;28;20547;-70
2023/12/26 10:00:25;;;;;;;1.67;1.57;;;;;;;;;;5068607;28;20422;-70
2023/12/26 10:02:52;;;;;;;1.13;1.10;;;;;;;;;;5084074;28;21085;-70
2023/12/26 10:05:18;;;;;;;2.07;1.87;;;;;;;;;;5083933;28;20463;-69
2023/12/26 10:07:44;;;;;;;3.30;1.30;;;;;;;;;;5067549;28;20445;-70
2023/12/26 10:10:11;;;;;;;2.23;1.13;;;;;;;;;;5068121;28;20437;-70
2023/12/26 10:12:37;;;;;;;5.73;1.87;;;;;;;;;;5067719;28;20476;-70
2023/12/26 10:15:04;;;;;;;13.30;2.53;;;;;;;;;;5068354;28;20491;-70
2023/12/26 10:17:31;;;;;;;3.97;1.33;;;;;;;;;;5067136;28;21038;-70
2023/12/26 10:19:58;;;;;;;9.17;2.20;;;;;;;;;;5068876;28;20505;-70
2023/12/26 10:22:27;;;;;;;1.80;1.70;;;;;;;;;;5065554;28;20469;-71
2023/12/26 10:24:55;;;;;;;3.43;1.60;;;;;;;;;;5067959;28;20434;-70
2023/12/26 10:27:21;;;;;;;1.00;0.90;;;;;;;;;;5083572;28;20461;-70
2023/12/26 10:29:51;;;;;;;6.20;1.20;;;;;;;;;;5066611;28;20468;-71
2023/12/26 10:32:17;;;;;;;2.73;1.23;;;;;;;;;;5067041;28;20426;-70
2023/12/26 10:34:43;;;;;;;2.50;1.23;;;;;;;;;;5069153;28;20417;-71
2023/12/26 10:37:10;;;;;;;1.30;1.30;;;;;;;;;;5066344;28;20485;-70
2023/12/26 10:39:36;;;;;;;3.70;2.00;;;;;;;;;;5065279;28;20433;-70
2023/12/26 10:42:03;;;;;;;4.63;1.60;;;;;;;;;;5069954;28;20495;-70
2023/12/26 10:44:30;;;;;;;9.23;1.87;;;;;;;;;;5072224;28;20432;-70
2023/12/26 10:46:58;;;;;;;5.47;1.60;;;;;;;;;;5069636;28;20441;-72
2023/12/26 10:49:24;;;;;;;2.20;1.00;;;;;;;;;;5070184;28;20806;-72
2023/12/26 10:51:52;;;;;;;3.17;1.30;;;;;;;;;;5071449;28;20452;-72
2023/12/26 10:54:23;;;;;;;3.07;1.20;;;;;;;;;;5072278;28;20421;-70
2023/12/26 10:56:49;;;;;;;18.73;9.30;;;;;;;;;;5071617;28;20481;-72
2023/12/26 10:59:15;;;;;;;4.13;1.93;;;;;;;;;;5070521;28;20803;-70
2023/12/26 11:01:41;;;;;;;4.37;2.43;;;;;;;;;;5072424;28;20457;-72
2023/12/26 11:04:07;;;;;;;5.70;3.03;;;;;;;;;;5070913;28;20456;-74
2023/12/26 11:06:34;;;;;;;9.50;6.17;;;;;;;;;;5070958;28;20487;-72
2023/12/26 11:09:00;;;;;;;5.80;2.03;;;;;;;;;;5084897;28;20437;-71
2023/12/26 11:11:26;;;;;;;2.10;1.40;;;;;;;;;;5071430;28;20551;-71
2023/12/26 11:14:06;;;;;;;7.30;2.37;;;;;;;;;;5062189;28;20572;-70
2023/12/26 11:16:32;;;;;;;6.20;2.70;;;;;;;;;;5066207;28;20495;-71
2023/12/26 11:18:59;;;;;;;7.70;3.30;;;;;;;;;;5063592;28;20953;-70
2023/12/26 11:21:25;;;;;;;12.43;7.60;;;;;;;;;;5063361;28;20789;-71
2023/12/26 11:23:51;;;;;;;11.93;3.77;;;;;;;;;;5061448;28;20450;-70
2023/12/26 11:26:17;;;;;;;4.30;2.67;;;;;;;;;;5064672;28;20438;-70
2023/12/26 11:28:45;;;;;;;3.27;2.80;;;;;;;;;;5065939;28;20437;-71
2023/12/26 11:31:13;;;;;;;1.97;1.77;;;;;;;;;;5066358;28;20509;-69
2023/12/26 11:33:39;;;;;;;8.13;2.90;;;;;;;;;;5062534;28;20962;-70
2023/12/26 11:36:05;;;;;;;2.63;2.40;;;;;;;;;;5065650;28;20517;-69
2023/12/26 11:38:31;;;;;;;2.13;1.80;;;;;;;;;;5062011;28;20425;-69
2023/12/26 11:40:57;;;;;;;2.60;1.83;;;;;;;;;;5063863;28;20430;-69
2023/12/26 11:43:23;;;;;;;5.20;1.37;;;;;;;;;;5062081;28;20445;-68
2023/12/26 11:45:49;;;;;;;4.43;3.83;;;;;;;;;;5057312;28;20445;-69
2023/12/26 11:48:15;;;;;;;8.63;2.53;;;;;;;;;;5063512;28;20453;-68
2023/12/26 11:50:41;;;;;;;4.67;3.20;;;;;;;;;;5065874;28;20429;-70
2023/12/26 11:53:07;;;;;;;3.83;2.97;;;;;;;;;;5063505;28;20496;-69
2023/12/26 11:55:33;;;;;;;5.43;1.50;;;;;;;;;;5061112;28;20426;-69
2023/12/26 11:57:59;;;;;;;15.20;2.63;;;;;;;;;;5064456;28;20921;-72
2023/12/26 12:00:25;;;;;;;5.13;3.47;;;;;;;;;;5061527;28;20421;-69
2023/12/26 12:02:51;;;;;;;3.50;1.60;;;;;;;;;;5044655;28;20480;-70
2023/12/26 12:05:17;;;;;;;5.60;3.07;;;;;;;;;;5062679;28;20425;-68
2023/12/26 12:08:03;;;;;;;2.67;1.80;;;;;;;;;;5057866;28;20433;-69
2023/12/26 12:10:29;;;;;;;9.10;3.50;;;;;;;;;;5059089;28;20439;-69
2023/12/26 12:12:55;;;;;;;9.53;4.23;;;;;;;;;;5063099;28;20481;-72
2023/12/26 12:15:21;;;;;;;5.97;2.30;;;;;;;;;;5063621;28;20453;-70
2023/12/26 12:17:47;;;;;;;1.57;1.47;;;;;;;;;;5060686;28;20504;-71
2023/12/26 12:20:17;;;;;;;2.10;1.93;;;;;;;;;;5060914;28;20450;-72
2023/12/26 12:22:43;;;;;;;6.20;2.70;;;;;;;;;;5062837;28;20417;-70
2023/12/26 12:25:15;;;;;;;7.67;2.37;;;;;;;;;;5044150;28;20453;-71
2023/12/26 12:27:41;;;;;;;2.63;2.27;;;;;;;;;;5050996;28;20406;-70
2023/12/26 12:30:07;;;;;;;1.67;1.37;;;;;;;;;;5043793;28;20533;-70
2023/12/26 12:32:34;;;;;;;4.00;2.70;;;;;;;;;;5046591;28;21043;-69
2023/12/26 12:35:16;;;;;;;7.97;3.00;;;;;;;;;;5045956;28;20525;-71
2023/12/26 12:37:42;;;;;;;3.23;1.97;;;;;;;;;;5049178;28;20576;-70
2023/12/26 12:40:08;;;;;;;3.20;2.27;;;;;;;;;;5048225;28;20435;-70
2023/12/26 12:42:36;;;;;;;2.73;1.70;;;;;;;;;;5046367;28;20446;-72
2023/12/26 12:45:03;;;;;;;13.20;6.07;;;;;;;;;;5050211;28;20484;-70
2023/12/26 12:47:30;;;;;;;6.13;3.00;;;;;;;;;;5048450;28;20499;-70
2023/12/26 12:49:56;;;;;;;9.03;4.00;;;;;;;;;;5046149;28;20805;-72
2023/12/26 12:52:22;;;;;;;2.73;2.50;;;;;;;;;;5043657;28;20974;-71
2023/12/26 12:54:48;;;;;;;8.00;2.77;;;;;;;;;;5050221;28;20505;-70
2023/12/26 12:57:14;;;;;;;7.83;1.37;;;;;;;;;;5048073;28;20426;-70
2023/12/26 12:59:40;;;;;;;3.17;1.33;;;;;;;;;;5046440;28;20471;-72
2023/12/26 13:02:08;;;;;;;3.03;2.40;;;;;;;;;;5049685;28;20426;-71
2023/12/26 13:04:34;;;;;;;3.00;2.70;;;;;;;;;;5046805;28;20442;-70
2023/12/26 13:07:00;;;;;;;3.10;1.20;;;;;;;;;;5045017;28;20437;-70
2023/12/26 13:09:26;;;;;;;2.63;1.33;;;;;;;;;;5048710;28;20431;-72
2023/12/26 13:11:52;;;;;;;4.27;1.93;;;;;;;;;;5047673;28;20430;-70
2023/12/26 13:14:18;;;;;;;2.90;1.10;;;;;;;;;;5048574;28;20441;-70
2023/12/26 13:16:44;;;;;;;3.83;2.30;;;;;;;;;;5047706;28;20996;-70
2023/12/26 13:19:10;;;;;;;1.67;1.53;;;;;;;;;;5042971;28;20529;-71
2023/12/26 13:21:37;;;;;;;2.97;1.90;;;;;;;;;;5046495;28;20492;-70
2023/12/26 13:24:03;;;;;;;5.13;3.00;;;;;;;;;;5049295;28;20426;-70
2023/12/26 13:26:37;;;;;;;5.73;2.13;;;;;;;;;;5049783;28;20993;-71
2023/12/26 13:29:06;;;;;;;8.40;2.27;;;;;;;;;;5042234;28;20430;-71
2023/12/26 13:31:32;;;;;;;2.20;1.30;;;;;;;;;;5046819;28;20430;-72
2023/12/26 13:33:58;;;;;;;5.57;1.87;;;;;;;;;;5045289;28;20479;-73
2023/12/26 13:36:24;;;;;;;2.93;1.80;;;;;;;;;;5044995;28;20434;-73
2023/12/26 13:38:50;;;;;;;3.50;2.20;;;;;;;;;;5043366;28;20450;-74
2023/12/26 13:41:16;;;;;;;3.10;2.03;;;;;;;;;;5044526;28;20434;-72
2023/12/26 13:43:42;;;;;;;2.53;2.10;;;;;;;;;;5049140;28;20840;-73
2023/12/26 13:46:08;;;;;;;1.43;1.33;;;;;;;;;;5042304;28;20449;-73
2023/12/26 13:48:34;;;;;;;2.10;1.37;;;;;;;;;;5044036;28;20443;-72
2023/12/26 13:51:00;;;;;;;3.10;2.03;;;;;;;;;;5044605;28;20518;-73
2023/12/26 13:53:26;;;;;;;10.23;2.07;;;;;;;;;;5045033;28;20481;-73
2023/12/26 13:55:52;;;;;;;3.33;1.73;;;;;;;;;;5048341;28;20426;-73
2023/12/26 13:58:18;;;;;;;6.37;1.30;;;;;;;;;;5040075;28;20443;-74
2023/12/26 14:00:44;;;;;;;4.93;2.30;;;;;;;;;;5041778;28;20792;-74
2023/12/26 14:03:10;;;;;;;3.90;1.60;;;;;;;;;;5039935;28;20446;-74
2023/12/26 14:05:36;;;;;;;6.47;3.80;;;;;;;;;;5044050;28;20477;-72
2023/12/26 14:08:05;;;;;;;3.47;3.17;;;;;;;;;;5045879;28;20495;-73
2023/12/26 14:10:30;;;;;;;5.67;2.80;;;;;;;;;;5044835;28;20454;-75
2023/12/26 14:12:56;;;;;;;1.37;1.30;;;;;;;;;;5046483;28;21225;-73
2023/12/26 14:15:22;;;;;;;3.50;2.90;;;;;;;;;;5047401;28;20431;-73
2023/12/26 14:17:48;;;;;;;4.63;1.80;;;;;;;;;;5047993;28;20510;-73
2023/12/26 14:20:14;;;;;;;3.03;1.60;;;;;;;;;;5048399;28;20426;-73
2023/12/26 14:22:41;;;;;;;2.17;1.67;;;;;;;;;;5048205;28;20427;-74
2023/12/26 14:25:07;;;;;;;4.70;1.60;;;;;;;;;;5043188;28;20425;-74
2023/12/26 14:27:33;;;;;;;4.47;1.63;;;;;;;;;;5044694;28;20435;-74
2023/12/26 14:29:59;;;;;;;4.93;1.40;;;;;;;;;;5044940;28;20529;-74
2023/12/26 14:32:25;;;;;;;3.03;2.00;;;;;;;;;;5045506;28;20473;-73
2023/12/26 14:34:51;;;;;;;5.27;1.50;;;;;;;;;;5046718;28;20434;-74
2023/12/26 14:37:17;;;;;;;2.90;1.37;;;;;;;;;;5047796;28;20449;-74